Time;durP1;ratioP1;P1;durP2;ratioP2;P2;SDS_P1;SDS_P2;PMS_P1;PMS_P2;Temp;Humidity;BMP_temperature;BMP_pressure;BME280_temperature;BME280_humidity;BME280_pressure;Samples;Min_cycle;Max_cycle;Signal;HPM_P1;HPM_P2
2023/09/22 00:02:27;;;;;;;3.23;1.60;;;;;;;16.89;100.00;99753.34;10446791;28;20048;-65
2023/09/22 00:07:49;;;;;;;5.60;2.28;;;;;;;16.93;100.00;99750.41;10451201;28;20059;-65
2023/09/22 00:13:11;;;;;;;2.80;2.50;;;;;;;16.92;100.00;99746.13;10451804;28;20056;-65
2023/09/22 00:18:32;;;;;;;2.95;2.38;;;;;;;16.87;100.00;99747.41;10442432;28;20049;-64
2023/09/22 00:23:54;;;;;;;5.45;2.65;;;;;;;16.82;100.00;99755.59;10460110;28;20092;-65
2023/09/22 00:29:15;;;;;;;3.13;2.83;;;;;;;16.80;100.00;99760.09;10444189;28;20045;-65
2023/09/22 00:34:38;;;;;;;4.53;3.00;;;;;;;16.76;100.00;99769.09;10448820;28;20041;-65
2023/09/22 00:40:00;;;;;;;4.35;2.92;;;;;;;16.74;100.00;99754.47;10448891;28;20095;-64
2023/09/22 00:45:21;;;;;;;9.32;3.30;;;;;;;16.74;100.00;99755.31;10438471;28;20996;-65
2023/09/22 00:50:43;;;;;;;3.95;3.17;;;;;;;16.67;100.00;99743.63;10447621;28;20045;-65
2023/09/22 00:56:06;;;;;;;3.72;3.03;;;;;;;16.70;100.00;99747.81;10447440;28;20400;-65
2023/09/22 01:01:27;;;;;;;5.40;3.00;;;;;;;16.67;100.00;99761.94;10437212;28;20517;-66
2023/09/22 01:06:49;;;;;;;5.78;3.67;;;;;;;16.63;100.00;99773.53;10440407;28;20036;-66
2023/09/22 01:12:11;;;;;;;5.63;3.33;;;;;;;16.63;100.00;99770.91;10454031;28;20052;-66
2023/09/22 01:17:34;;;;;;;7.15;3.85;;;;;;;16.63;100.00;99762.25;10439947;28;20488;-66
2023/09/22 01:22:55;;;;;;;6.55;4.22;;;;;;;16.63;100.00;99768.31;10445710;28;20048;-66
2023/09/22 01:28:17;;;;;;;6.60;4.32;;;;;;;16.62;100.00;99771.88;10444989;28;20059;-66
2023/09/22 01:33:39;;;;;;;8.32;4.38;;;;;;;16.63;100.00;99762.25;10440776;28;20041;-66
2023/09/22 01:39:02;;;;;;;5.88;4.20;;;;;;;16.65;100.00;99760.34;10443835;28;20064;-66
2023/09/22 01:44:24;;;;;;;6.63;4.40;;;;;;;16.63;100.00;99773.53;10438786;28;20540;-66
2023/09/22 01:49:45;;;;;;;10.98;4.97;;;;;;;16.64;100.00;99774.38;10455719;28;20412;-66
2023/09/22 01:55:07;;;;;;;6.22;4.50;;;;;;;16.65;100.00;99782.09;10440014;28;20047;-67
2023/09/22 02:00:29;;;;;;;8.10;5.13;;;;;;;16.65;100.00;99782.09;10444983;28;20053;-66
2023/09/22 02:05:50;;;;;;;6.05;5.45;;;;;;;16.67;100.00;99777.59;10432640;28;20456;-66
2023/09/22 02:11:12;;;;;;;7.05;5.88;;;;;;;16.69;100.00;99764.41;10451867;28;20071;-66
2023/09/22 02:16:34;;;;;;;10.80;6.00;;;;;;;16.70;100.00;99756.47;10437416;28;20062;-66
2023/09/22 02:21:55;;;;;;;12.82;6.55;;;;;;;16.67;100.00;99764.53;10449687;28;20065;-66
2023/09/22 02:27:17;;;;;;;8.82;7.03;;;;;;;16.66;100.00;99780.34;10442599;28;20339;-66
2023/09/22 02:32:41;;;;;;;9.52;7.28;;;;;;;16.66;100.00;99782.94;10436239;28;20045;-66
2023/09/22 02:38:02;;;;;;;10.05;7.80;;;;;;;16.65;100.00;99787.31;10438707;28;20056;-66
2023/09/22 02:43:24;;;;;;;9.30;7.85;;;;;;;16.63;100.00;99794.44;10446563;28;20060;-66
2023/09/22 02:48:46;;;;;;;9.40;7.10;;;;;;;16.62;100.00;99790.16;10446600;28;20049;-66
2023/09/22 02:54:08;;;;;;;9.20;7.20;;;;;;;16.58;100.00;99791.31;10442034;28;20053;-66
2023/09/22 02:59:30;;;;;;;10.00;7.82;;;;;;;16.57;100.00;99805.31;10439625;28;20060;-66
2023/09/22 03:04:51;;;;;;;12.40;7.53;;;;;;;16.56;100.00;99814.09;10444884;28;20532;-66
2023/09/22 03:10:13;;;;;;;10.95;8.10;;;;;;;16.54;100.00;99820.38;10450553;28;20052;-66
2023/09/22 03:15:35;;;;;;;11.90;7.63;;;;;;;16.60;100.00;99818.19;10454274;28;20053;-66
2023/09/22 03:20:57;;;;;;;9.05;8.05;;;;;;;16.58;100.00;99783.50;10448053;28;20072;-66
2023/09/22 03:26:20;;;;;;;11.95;7.78;;;;;;;16.54;100.00;99787.25;10452579;28;20051;-66
2023/09/22 03:31:41;;;;;;;15.90;7.93;;;;;;;16.54;100.00;99786.41;10462222;28;20067;-66
2023/09/22 03:37:08;;;;;;;9.80;8.13;;;;;;;16.53;100.00;99783.00;10444772;28;20440;-65
2023/09/22 03:42:30;;;;;;;9.43;8.30;;;;;;;16.49;100.00;99776.31;10485310;28;20171;-65
2023/09/22 03:47:51;;;;;;;11.70;8.15;;;;;;;16.43;100.00;99776.69;10448315;28;20118;-66
2023/09/22 03:53:13;;;;;;;10.63;8.00;;;;;;;16.44;100.00;99778.38;10442689;28;20472;-65
2023/09/22 03:58:35;;;;;;;13.02;8.48;;;;;;;16.37;100.00;99790.19;10452925;28;20053;-66
2023/09/22 04:03:56;;;;;;;10.60;8.32;;;;;;;16.38;100.00;99789.25;10450965;28;20056;-66
2023/09/22 04:09:18;;;;;;;12.57;9.18;;;;;;;16.41;100.00;99783.81;10462365;28;20077;-65
2023/09/22 04:14:40;;;;;;;11.95;9.32;;;;;;;16.38;100.00;99770.97;10446880;28;20052;-66
2023/09/22 04:20:09;;;;;;;14.80;9.02;;;;;;;16.37;100.00;99776.31;10446901;28;20095;-66
2023/09/22 04:25:34;;;;;;;14.00;10.13;;;;;;;16.32;100.00;99781.84;10441381;28;20187;-65
2023/09/22 04:31:00;;;;;;;12.90;9.80;;;;;;;16.25;100.00;99788.44;10442900;28;20045;-65
2023/09/22 04:36:22;;;;;;;14.45;10.15;;;;;;;16.22;100.00;99788.66;10448575;28;20067;-66
2023/09/22 04:41:43;;;;;;;15.82;11.23;;;;;;;16.21;100.00;99786.16;10446929;28;20072;-66
2023/09/22 04:47:05;;;;;;;15.05;11.13;;;;;;;16.21;100.00;99802.66;10436201;28;20658;-65
2023/09/22 04:52:27;;;;;;;15.52;11.45;;;;;;;16.25;100.00;99818.94;10436646;28;20053;-66
2023/09/22 04:57:48;;;;;;;15.95;11.52;;;;;;;16.26;100.00;99831.88;10448116;28;20040;-66
2023/09/22 05:03:10;;;;;;;15.57;11.93;;;;;;;16.22;100.00;99838.28;10433812;28;20057;-66
2023/09/22 05:08:33;;;;;;;16.45;12.40;;;;;;;16.21;100.00;99847.03;10438288;28;20510;-66
2023/09/22 05:13:55;;;;;;;14.68;12.23;;;;;;;16.22;100.00;99853.94;10446562;28;20045;-66
2023/09/22 05:19:16;;;;;;;16.02;11.70;;;;;;;16.13;100.00;99878.06;10449381;28;20048;-65
2023/09/22 05:24:38;;;;;;;15.55;12.32;;;;;;;16.12;100.00;99876.38;10441078;28;20063;-66
2023/09/22 05:30:00;;;;;;;15.25;11.85;;;;;;;16.06;100.00;99882.00;10447075;28;20063;-65
2023/09/22 05:35:22;;;;;;;18.27;12.07;;;;;;;16.03;99.85;99866.56;10450381;28;20048;-65
2023/09/22 05:40:43;;;;;;;15.98;11.70;;;;;;;15.96;99.75;99881.81;10435733;28;20053;-66
2023/09/22 05:46:05;;;;;;;14.35;11.50;;;;;;;15.95;100.00;99889.75;10437659;28;20048;-66
2023/09/22 05:51:27;;;;;;;14.75;10.82;;;;;;;15.90;99.18;99912.69;10441154;28;20049;-65
2023/09/22 05:56:48;;;;;;;14.80;9.73;;;;;;;15.94;98.17;99914.16;10438919;28;20071;-66
2023/09/22 06:02:10;;;;;;;13.80;10.65;;;;;;;15.95;99.76;99894.97;10444889;28;20052;-66
2023/09/22 06:07:32;;;;;;;18.58;10.55;;;;;;;15.97;100.00;99888.69;10434333;28;20803;-66
2023/09/22 06:12:54;;;;;;;18.08;10.43;;;;;;;15.94;99.78;99875.00;10426575;28;20052;-65
2023/09/22 06:18:18;;;;;;;12.20;10.07;;;;;;;15.91;98.83;99915.19;10442089;28;20588;-66
2023/09/22 06:23:40;;;;;;;12.95;10.38;;;;;;;15.93;98.30;99938.59;10448074;28;20142;-65
2023/09/22 06:29:02;;;;;;;15.35;11.45;;;;;;;15.91;98.95;99935.25;10442943;28;20075;-65
2023/09/22 06:34:23;;;;;;;19.15;14.23;;;;;;;15.88;98.16;99959.75;10439548;28;20044;-66
2023/09/22 06:39:46;;;;;;;18.50;14.52;;;;;;;15.88;98.71;99964.97;10447468;28;20060;-66
2023/09/22 06:45:11;;;;;;;18.52;14.00;;;;;;;15.85;98.29;99983.44;10450124;28;20408;-66
2023/09/22 06:50:34;;;;;;;20.33;13.48;;;;;;;15.88;97.07;99987.63;10440731;28;20139;-66
2023/09/22 06:56:08;;;;;;;19.55;13.23;;;;;;;15.89;97.51;99991.91;10451163;28;20144;-65
2023/09/22 07:01:30;;;;;;;20.73;14.00;;;;;;;15.91;96.93;99997.88;10447049;28;20516;-65
2023/09/22 07:06:52;;;;;;;24.90;13.27;;;;;;;15.92;98.41;99989.09;10430422;28;20080;-65
2023/09/22 07:12:14;;;;;;;17.92;12.65;;;;;;;15.85;95.68;99993.03;10457332;28;20053;-65
2023/09/22 07:17:36;;;;;;;16.38;11.45;;;;;;;15.77;95.29;100005.72;10450683;28;20633;-65
2023/09/22 07:22:57;;;;;;;16.65;12.40;;;;;;;15.69;95.10;100023.66;10443944;28;20053;-65
2023/09/22 07:28:19;;;;;;;14.75;11.38;;;;;;;15.64;96.07;100025.75;10468627;28;20542;-65
2023/09/22 07:33:43;;;;;;;14.05;9.63;;;;;;;15.59;95.25;100026.03;10451866;28;20044;-66
2023/09/22 07:39:05;;;;;;;11.10;8.75;;;;;;;15.55;95.46;100026.28;10439100;28;20131;-65
2023/09/22 07:44:27;;;;;;;14.55;9.10;;;;;;;15.52;95.28;100037.78;10445704;28;20048;-66
2023/09/22 07:49:54;;;;;;;13.57;8.32;;;;;;;15.61;94.55;100052.00;10446340;28;20049;-65
2023/09/22 07:55:15;;;;;;;14.45;8.18;;;;;;;15.67;94.25;100046.41;10456987;28;20045;-66
2023/09/22 08:00:42;;;;;;;12.15;7.65;;;;;;;15.68;95.04;100035.88;10458449;28;20076;-66
2023/09/22 08:06:05;;;;;;;13.77;7.35;;;;;;;15.76;93.94;100045.81;10460017;28;20040;-66
2023/09/22 08:11:27;;;;;;;10.15;6.50;;;;;;;15.85;96.63;100053.06;10451928;28;20409;-65
2023/09/22 08:16:49;;;;;;;10.63;6.65;;;;;;;15.98;93.23;100044.34;10443928;28;20052;-66
2023/09/22 08:22:11;;;;;;;9.63;5.97;;;;;;;16.06;92.94;100062.09;10441427;28;21127;-66
2023/09/22 08:27:33;;;;;;;10.57;5.95;;;;;;;16.10;92.33;100082.69;10449528;28;20045;-66
2023/09/22 08:32:55;;;;;;;10.82;5.60;;;;;;;16.11;91.81;100100.03;10455050;28;20059;-66
2023/09/22 08:38:18;;;;;;;7.00;5.10;;;;;;;16.12;92.13;100090.41;10452475;28;20487;-66
2023/09/22 08:43:40;;;;;;;8.38;5.00;;;;;;;16.16;92.51;100081.47;10448828;28;20298;-66
2023/09/22 08:49:02;;;;;;;7.28;4.47;;;;;;;16.16;91.56;100101.50;10455719;28;20530;-66
2023/09/22 08:54:24;;;;;;;12.40;4.90;;;;;;;16.15;91.60;100105.91;10439328;28;20060;-66
2023/09/22 08:59:46;;;;;;;7.85;5.13;;;;;;;16.09;91.79;100107.13;10442056;28;20052;-68
2023/09/22 09:05:33;;;;;;;8.32;5.25;;;;;;;16.15;91.63;100116.34;10418580;28;20080;-68
2023/09/22 09:10:57;;;;;;;7.95;5.93;;;;;;;16.17;91.49;100114.44;10426834;28;20136;-66
2023/09/22 09:16:28;;;;;;;10.02;5.57;;;;;;;16.21;90.35;100104.69;10453612;28;20047;-66
2023/09/22 09:22:08;;;;;;;9.77;5.63;;;;;;;16.15;91.08;100105.91;10457038;28;20159;-66
2023/09/22 09:27:31;;;;;;;10.02;6.22;;;;;;;16.18;92.25;100094.41;10448971;28;20512;-67
2023/09/22 09:33:06;;;;;;;9.60;5.90;;;;;;;16.23;92.99;100087.97;10434584;28;20743;-67
2023/09/22 09:38:29;;;;;;;7.97;5.37;;;;;;;16.29;90.94;100105.00;10445445;28;20053;-67
2023/09/22 09:43:53;;;;;;;13.77;5.53;;;;;;;16.33;91.33;100120.38;10450301;28;20466;-67
2023/09/22 09:49:15;;;;;;;10.55;5.10;;;;;;;16.40;91.49;100113.81;10443801;28;20053;-67
2023/09/22 09:54:43;;;;;;;8.65;4.25;;;;;;;16.41;90.18;100112.88;10447689;28;20497;-68
2023/09/22 10:00:12;;;;;;;9.45;3.90;;;;;;;16.47;89.10;100117.72;10454602;28;20127;-68
2023/09/22 10:05:34;;;;;;;8.07;3.28;;;;;;;16.54;89.19;100119.00;10451375;28;20472;-68
2023/09/22 10:11:01;;;;;;;7.03;3.38;;;;;;;16.67;88.56;100119.00;10455043;28;20131;-69
2023/09/22 10:16:31;;;;;;;4.32;2.50;;;;;;;16.72;87.03;100117.78;10439889;28;20511;-67
2023/09/22 10:21:55;;;;;;;5.43;1.80;;;;;;;16.88;87.17;100115.81;10468032;28;20057;-69
2023/09/22 10:27:18;;;;;;;8.65;1.60;;;;;;;16.99;83.79;100110.69;10458519;28;20052;-68
2023/09/22 10:32:41;;;;;;;8.52;1.60;;;;;;;16.98;85.17;100093.34;10473170;28;20060;-68
2023/09/22 10:38:05;;;;;;;3.40;1.48;;;;;;;17.14;84.78;100097.53;10456838;28;20158;-68
2023/09/22 10:43:32;;;;;;;5.03;1.40;;;;;;;17.24;83.99;100091.56;10442350;28;20059;-67
2023/09/22 10:48:54;;;;;;;5.10;1.60;;;;;;;17.40;84.10;100092.16;10449833;28;20781;-68
2023/09/22 10:54:17;;;;;;;5.03;1.63;;;;;;;17.56;80.79;100115.50;10454283;28;20467;-67
2023/09/22 10:59:41;;;;;;;3.70;1.42;;;;;;;17.56;82.78;100105.03;10455101;28;20045;-67
2023/09/22 11:05:05;;;;;;;1.92;1.20;;;;;;;17.60;81.60;100103.91;10450831;28;20413;-67
2023/09/22 11:10:27;;;;;;;2.47;1.38;;;;;;;17.63;80.56;100101.06;10468805;28;20052;-66
2023/09/22 11:15:57;;;;;;;2.15;1.20;;;;;;;17.62;80.41;100104.59;10455352;28;20516;-67
2023/09/22 11:21:20;;;;;;;3.67;1.40;;;;;;;17.63;80.04;100109.75;10455659;28;20056;-67
2023/09/22 11:26:42;;;;;;;3.72;1.10;;;;;;;17.73;81.03;100107.28;10457725;28;20218;-67
2023/09/22 11:32:06;;;;;;;3.47;1.33;;;;;;;18.02;78.69;100119.97;10448890;28;20118;-67
2023/09/22 11:37:31;;;;;;;3.22;1.30;;;;;;;18.20;75.93;100117.81;10462897;28;20059;-67
2023/09/22 11:42:53;;;;;;;2.78;1.20;;;;;;;18.16;76.52;100126.84;10472696;28;20558;-68
2023/09/22 11:48:15;;;;;;;4.30;1.20;;;;;;;18.04;77.86;100132.94;10458839;28;20045;-67
2023/09/22 11:53:37;;;;;;;1.50;1.05;;;;;;;17.90;80.22;100126.09;10454877;28;20059;-67
2023/09/22 11:59:12;;;;;;;2.85;1.10;;;;;;;17.83;77.99;100144.97;10464323;28;20040;-67
2023/09/22 12:04:37;;;;;;;2.77;1.03;;;;;;;17.99;80.05;100148.16;10464537;28;20048;-67
2023/09/22 12:10:00;;;;;;;3.45;1.13;;;;;;;18.13;76.74;100148.00;10454204;28;20049;-67
2023/09/22 12:15:22;;;;;;;4.93;1.33;;;;;;;18.05;76.30;100166.91;10454279;28;20072;-68
2023/09/22 12:20:44;;;;;;;3.15;0.98;;;;;;;17.99;75.74;100169.09;10458845;28;20145;-67
2023/09/22 12:26:05;;;;;;;1.80;0.98;;;;;;;17.97;75.43;100181.47;10452734;28;20150;-68
2023/09/22 12:31:27;;;;;;;2.45;0.95;;;;;;;18.06;77.10;100172.97;10447494;28;20055;-68
2023/09/22 12:36:51;;;;;;;2.00;1.00;;;;;;;18.25;75.69;100186.44;10456922;28;20052;-68
2023/09/22 12:42:13;;;;;;;6.63;1.17;;;;;;;18.26;73.85;100169.75;10486843;28;20175;-68
2023/09/22 12:47:35;;;;;;;5.20;1.00;;;;;;;18.25;75.13;100175.94;10485159;28;20045;-68
2023/09/22 12:53:00;;;;;;;1.55;0.85;;;;;;;18.26;74.47;100185.47;10491053;28;20094;-68
2023/09/22 12:58:23;;;;;;;2.20;0.70;;;;;;;18.20;75.93;100196.41;10488075;28;20049;-68
2023/09/22 13:03:46;;;;;;;2.70;1.00;;;;;;;18.24;75.68;100191.78;10489754;28;20424;-67
2023/09/22 13:09:08;;;;;;;3.90;1.00;;;;;;;18.34;75.44;100196.25;10500403;28;20048;-67
2023/09/22 13:14:31;;;;;;;2.97;0.90;;;;;;;18.36;74.41;100196.97;10468078;28;20045;-68
2023/09/22 13:19:53;;;;;;;2.67;0.90;;;;;;;18.39;73.26;100199.34;10476075;28;20638;-67
2023/09/22 13:25:15;;;;;;;5.45;0.82;;;;;;;18.39;72.10;100201.97;10475548;28;20281;-67
2023/09/22 13:30:42;;;;;;;2.53;0.70;;;;;;;18.33;73.88;100191.13;10464633;28;20052;-68
2023/09/22 13:36:04;;;;;;;1.73;0.90;;;;;;;18.31;74.03;100204.34;10476674;28;20052;-67
2023/09/22 13:41:26;;;;;;;2.17;0.68;;;;;;;18.24;71.15;100192.59;10476228;28;20140;-66
2023/09/22 13:46:47;;;;;;;0.73;0.50;;;;;;;18.39;71.84;100185.41;10465660;28;20186;-66
2023/09/22 13:52:09;;;;;;;1.75;0.70;;;;;;;18.55;74.44;100192.09;10471857;28;20428;-67
2023/09/22 13:57:33;;;;;;;1.20;0.60;;;;;;;18.62;71.76;100188.09;10478036;28;20480;-67
2023/09/22 14:02:56;;;;;;;4.25;0.93;;;;;;;18.72;73.85;100186.44;10478185;28;20052;-67
2023/09/22 14:08:18;;;;;;;2.20;0.77;;;;;;;18.80;71.75;100180.66;10474419;28;20040;-67
2023/09/22 14:13:40;;;;;;;0.70;0.52;;;;;;;18.72;71.69;100182.97;10469504;28;20060;-66
2023/09/22 14:19:02;;;;;;;2.20;0.70;;;;;;;18.69;72.46;100184.06;10472942;28;20048;-67
2023/09/22 14:24:25;;;;;;;1.20;0.73;;;;;;;18.80;71.47;100180.66;10476718;28;20143;-66
2023/09/22 14:29:47;;;;;;;2.00;0.70;;;;;;;18.73;71.07;100185.50;10478486;28;20047;-67
2023/09/22 14:35:09;;;;;;;3.45;1.00;;;;;;;18.78;72.17;100183.38;10468776;28;20056;-67
2023/09/22 14:40:31;;;;;;;4.63;0.68;;;;;;;18.78;72.11;100191.25;10478118;28;20061;-67
2023/09/22 14:45:53;;;;;;;3.67;1.38;;;;;;;18.70;72.34;100190.97;10472436;28;20406;-67
2023/09/22 14:51:15;;;;;;;4.60;1.42;;;;;;;18.63;72.52;100192.38;10477667;28;20068;-66
2023/09/22 14:56:37;;;;;;;1.98;0.98;;;;;;;18.59;73.33;100205.78;10472228;28;20055;-67
2023/09/22 15:02:00;;;;;;;6.38;1.08;;;;;;;18.55;72.80;100207.81;10479966;28;20060;-67
2023/09/22 15:07:22;;;;;;;1.17;0.93;;;;;;;18.57;73.55;100221.63;10496342;28;20049;-67
2023/09/22 15:12:44;;;;;;;2.80;1.20;;;;;;;18.55;72.04;100223.53;10481310;28;20072;-67
2023/09/22 15:18:05;;;;;;;1.63;0.60;;;;;;;18.46;70.25;100244.34;10478191;28;20044;-67
2023/09/22 15:23:27;;;;;;;6.32;0.60;;;;;;;18.37;70.76;100240.56;10487745;28;20047;-67
2023/09/22 15:28:49;;;;;;;2.38;0.63;;;;;;;18.29;68.46;100263.84;10472468;28;20409;-67
2023/09/22 15:34:11;;;;;;;4.13;0.80;;;;;;;18.23;72.59;100252.97;10490813;28;20077;-66
2023/09/22 15:39:33;;;;;;;2.13;0.60;;;;;;;18.15;72.57;100260.53;10486786;28;20040;-67
2023/09/22 15:44:54;;;;;;;1.05;0.70;;;;;;;18.15;71.94;100269.22;10469346;28;20158;-67
2023/09/22 15:50:16;;;;;;;3.92;0.80;;;;;;;18.12;72.71;100276.44;10489239;28;20056;-67
2023/09/22 15:55:38;;;;;;;1.75;0.77;;;;;;;18.10;73.87;100284.41;10480300;28;20429;-67
2023/09/22 16:01:00;;;;;;;1.63;0.80;;;;;;;18.09;72.19;100282.75;10466449;28;20131;-67
2023/09/22 16:06:22;;;;;;;1.83;0.85;;;;;;;18.10;72.69;100281.78;10478984;28;20041;-67
2023/09/22 16:11:43;;;;;;;1.92;1.02;;;;;;;18.04;71.93;100292.69;10478528;28;20403;-67
2023/09/22 16:17:05;;;;;;;2.35;1.00;;;;;;;18.05;72.56;100300.47;10475104;28;20164;-67
2023/09/22 16:22:27;;;;;;;1.35;0.90;;;;;;;18.07;73.64;100308.22;10471900;28;20063;-67
2023/09/22 16:27:49;;;;;;;3.03;1.02;;;;;;;18.02;71.95;100311.13;10480844;28;20040;-67
2023/09/22 16:33:11;;;;;;;1.83;1.00;;;;;;;18.00;74.19;100312.19;10473829;28;20495;-67
2023/09/22 16:38:34;;;;;;;3.00;1.17;;;;;;;17.98;73.03;100308.84;10475843;28;20132;-66
2023/09/22 16:43:56;;;;;;;3.33;0.90;;;;;;;17.94;73.83;100315.22;10478414;28;20044;-67
2023/09/22 16:49:18;;;;;;;3.38;0.90;;;;;;;17.88;72.29;100305.16;10484468;28;20055;-67
2023/09/22 16:54:44;;;;;;;2.28;0.77;;;;;;;17.90;72.96;100312.00;10483703;28;20428;-67
2023/09/22 17:00:06;;;;;;;1.30;0.70;;;;;;;17.86;75.24;100312.28;10478085;28;20097;-67
2023/09/22 17:05:30;;;;;;;1.38;0.80;;;;;;;17.82;75.74;100310.81;10458866;28;20070;-67
2023/09/22 17:10:52;;;;;;;2.58;0.93;;;;;;;17.79;75.18;100311.88;10489153;28;20512;-67
2023/09/22 17:16:14;;;;;;;0.75;0.60;;;;;;;17.76;75.78;100306.84;10469071;28;20048;-69
2023/09/22 17:21:36;;;;;;;1.45;0.70;;;;;;;17.67;77.03;100294.38;10477998;28;20047;-69
2023/09/22 17:26:57;;;;;;;1.52;0.70;;;;;;;17.65;78.21;100316.38;10474171;28;20102;-68
2023/09/22 17:32:21;;;;;;;4.18;0.80;;;;;;;17.62;77.41;100319.16;10459859;28;20054;-68
2023/09/22 17:37:43;;;;;;;6.13;1.15;;;;;;;17.48;79.01;100314.88;10475130;28;20040;-68
2023/09/22 17:43:05;;;;;;;2.38;0.88;;;;;;;17.35;79.32;100318.38;10476282;28;20044;-68
2023/09/22 17:48:30;;;;;;;3.45;1.10;;;;;;;17.19;80.41;100320.31;10472916;28;20045;-68
2023/09/22 17:53:52;;;;;;;3.05;1.02;;;;;;;17.06;80.94;100326.34;10485153;28;20055;-69
2023/09/22 17:59:13;;;;;;;1.70;0.98;;;;;;;16.95;81.16;100322.75;10471794;28;20075;-67
2023/09/22 18:04:36;;;;;;;3.03;1.67;;;;;;;16.87;81.93;100318.00;10463075;28;20060;-66
2023/09/22 18:09:58;;;;;;;5.43;1.33;;;;;;;16.77;82.43;100319.53;10470878;28;20048;-68
2023/09/22 18:15:20;;;;;;;8.85;1.80;;;;;;;16.66;82.73;100319.38;10463960;28;20048;-67
2023/09/22 18:20:50;;;;;;;2.47;1.40;;;;;;;16.60;83.10;100322.38;10468559;28;20060;-67
2023/09/22 18:26:12;;;;;;;3.20;1.27;;;;;;;16.54;83.75;100334.97;10479201;28;20052;-67
2023/09/22 18:31:34;;;;;;;3.13;1.35;;;;;;;16.47;83.91;100336.25;10467988;28;20064;-68
2023/09/22 18:36:56;;;;;;;3.58;1.20;;;;;;;16.38;82.92;100347.28;10479676;28;20139;-67
2023/09/22 18:42:18;;;;;;;4.13;1.35;;;;;;;16.31;83.73;100352.03;10481956;28;20052;-67
2023/09/22 18:47:40;;;;;;;4.72;1.42;;;;;;;16.21;83.54;100360.53;10480801;28;20046;-68
2023/09/22 18:53:04;;;;;;;2.58;1.30;;;;;;;16.16;84.56;100355.59;10484872;28;20144;-68
2023/09/22 18:58:26;;;;;;;2.65;1.10;;;;;;;16.07;84.33;100364.81;10513795;28;20504;-67
2023/09/22 19:03:48;;;;;;;4.22;1.38;;;;;;;16.06;85.51;100359.66;10472160;28;20055;-67
2023/09/22 19:09:10;;;;;;;2.28;1.30;;;;;;;16.03;86.18;100368.53;10485796;28;20051;-67
2023/09/22 19:14:34;;;;;;;3.25;1.45;;;;;;;16.01;85.72;100369.53;10485749;28;20059;-67
2023/09/22 19:19:56;;;;;;;3.22;1.30;;;;;;;15.98;85.56;100369.75;10476452;28;20458;-68
2023/09/22 19:25:18;;;;;;;7.00;1.98;;;;;;;15.92;85.79;100367.50;10500260;28;20510;-67
2023/09/22 19:30:40;;;;;;;3.38;1.88;;;;;;;15.92;86.05;100365.72;10481114;28;20080;-68
2023/09/22 19:36:04;;;;;;;7.68;2.00;;;;;;;15.85;86.08;100374.00;10493400;28;20651;-68
2023/09/22 19:41:26;;;;;;;2.22;1.58;;;;;;;15.82;86.27;100377.63;10486111;28;20052;-68
2023/09/22 19:46:50;;;;;;;6.35;2.20;;;;;;;15.77;86.47;100371.00;10481577;28;20067;-68
2023/09/22 19:52:12;;;;;;;4.05;1.83;;;;;;;15.75;86.86;100391.09;10473499;28;20053;-68
2023/09/22 19:57:35;;;;;;;4.75;1.83;;;;;;;15.78;86.97;100385.72;10478559;28;20047;-69
2023/09/22 20:02:56;;;;;;;4.10;1.88;;;;;;;15.76;86.76;100390.19;10478459;28;20052;-67
2023/09/22 20:08:20;;;;;;;3.42;2.08;;;;;;;15.75;86.93;100388.50;10487033;28;20193;-67
2023/09/22 20:13:43;;;;;;;5.15;2.00;;;;;;;15.72;86.76;100393.91;10483584;28;20093;-67
2023/09/22 20:19:05;;;;;;;2.80;1.98;;;;;;;15.70;86.68;100398.38;10483206;28;20105;-67
2023/09/22 20:24:27;;;;;;;4.70;2.00;;;;;;;15.69;86.91;100386.28;10486262;28;20056;-68
2023/09/22 20:29:49;;;;;;;6.45;2.42;;;;;;;15.70;87.66;100385.31;10484608;28;20028;-68
2023/09/22 20:35:11;;;;;;;3.42;1.63;;;;;;;15.69;87.61;100399.31;10472220;28;20416;-68
2023/09/22 20:40:33;;;;;;;4.82;2.13;;;;;;;15.71;86.83;100397.47;10476534;28;20098;-68
2023/09/22 20:45:56;;;;;;;7.10;2.67;;;;;;;15.71;86.09;100387.03;10480987;28;20048;-69
2023/09/22 20:51:25;;;;;;;5.00;2.38;;;;;;;15.75;87.08;100388.50;10468045;28;20048;-68
2023/09/22 20:56:47;;;;;;;5.90;2.50;;;;;;;15.74;87.06;100398.13;10467727;28;20047;-69
2023/09/22 21:02:10;;;;;;;8.82;2.65;;;;;;;15.75;87.33;100396.31;10480041;28;20055;-68
2023/09/22 21:07:32;;;;;;;4.43;2.55;;;;;;;15.68;87.87;100402.84;10478794;28;20516;-68
2023/09/22 21:12:54;;;;;;;4.03;2.45;;;;;;;15.76;86.15;100421.50;10444033;28;20516;-68
2023/09/22 21:18:15;;;;;;;7.03;2.80;;;;;;;15.76;86.18;100411.06;10466493;28;20528;-68
2023/09/22 21:23:37;;;;;;;11.80;3.42;;;;;;;15.80;86.17;100420.41;10461971;28;20619;-69
2023/09/22 21:29:06;;;;;;;6.63;4.10;;;;;;;15.82;85.31;100416.75;10468803;28;20052;-69
2023/09/22 21:34:34;;;;;;;9.43;4.78;;;;;;;15.78;85.87;100415.28;10445599;28;20048;-68
2023/09/22 21:39:56;;;;;;;7.20;4.10;;;;;;;15.79;86.27;100435.22;10473829;28;20511;-68
2023/09/22 21:45:18;;;;;;;6.03;3.50;;;;;;;15.76;86.14;100437.16;10471836;28;20056;-68
2023/09/22 21:50:41;;;;;;;4.25;2.97;;;;;;;15.71;86.53;100441.81;10476545;28;20514;-68
2023/09/22 21:56:03;;;;;;;4.95;2.70;;;;;;;15.67;87.07;100451.59;10475940;28;20661;-68
2023/09/22 22:01:32;;;;;;;5.10;2.70;;;;;;;15.66;89.37;100441.22;10474328;28;20206;-68
2023/09/22 22:06:56;;;;;;;4.78;2.85;;;;;;;15.60;89.02;100431.16;10471645;28;20041;-68
2023/09/22 22:12:20;;;;;;;3.93;3.10;;;;;;;15.50;88.78;100450.84;10481931;28;20044;-68
2023/09/22 22:17:43;;;;;;;3.88;3.08;;;;;;;15.45;89.44;100439.84;10485036;28;20055;-68
2023/09/22 22:23:06;;;;;;;6.03;3.40;;;;;;;15.48;90.09;100444.88;10494531;28;20075;-68
2023/09/22 22:28:28;;;;;;;4.95;3.63;;;;;;;15.48;90.21;100455.28;10494812;28;20044;-68
2023/09/22 22:33:50;;;;;;;9.13;3.70;;;;;;;15.51;90.94;100457.75;10490280;28;20052;-68
2023/09/22 22:39:12;;;;;;;5.70;3.33;;;;;;;15.52;91.66;100464.63;10496258;28;20050;-68
2023/09/22 22:44:37;;;;;;;6.28;4.00;;;;;;;15.50;91.07;100461.28;10509858;28;20043;-68
2023/09/22 22:49:58;;;;;;;5.53;4.22;;;;;;;15.42;91.06;100460.88;10489217;28;20048;-67
2023/09/22 22:55:23;;;;;;;8.90;4.35;;;;;;;15.38;92.66;100464.53;10490415;28;20099;-69
2023/09/22 23:00:47;;;;;;;6.53;4.60;;;;;;;15.29;92.86;100459.84;10494010;28;20113;-69
2023/09/22 23:06:11;;;;;;;8.05;4.82;;;;;;;15.23;93.49;100462.78;10492263;28;20476;-69
2023/09/22 23:11:32;;;;;;;7.22;4.47;;;;;;;15.26;96.48;100463.44;10477035;28;20045;-68
2023/09/22 23:16:54;;;;;;;5.35;4.07;;;;;;;15.29;98.37;100467.66;10490585;28;20071;-68
2023/09/22 23:22:16;;;;;;;6.90;4.63;;;;;;;15.24;96.42;100470.50;10492311;28;20506;-68
2023/09/22 23:27:38;;;;;;;6.25;4.78;;;;;;;15.23;96.43;100473.19;10487056;28;20386;-69
2023/09/22 23:33:00;;;;;;;8.20;4.60;;;;;;;15.20;95.14;100486.41;10481041;28;20043;-69
2023/09/22 23:38:22;;;;;;;7.32;4.57;;;;;;;15.13;95.35;100476.31;10489746;28;20064;-69
2023/09/22 23:43:44;;;;;;;5.18;4.57;;;;;;;15.16;95.84;100482.28;10483192;28;20442;-69
2023/09/22 23:49:06;;;;;;;8.45;4.78;;;;;;;15.10;96.85;100492.13;10484251;28;20722;-69
2023/09/22 23:54:27;;;;;;;7.30;4.75;;;;;;;15.10;96.36;100501.69;10482462;28;20063;-69
2023/09/22 23:59:50;;;;;;;7.00;4.72;;;;;;;15.10;97.32;100507.75;10485508;28;20590;-69
